Time;durP1;ratioP1;P1;durP2;ratioP2;P2;SDS_P1;SDS_P2;PMS_P1;PMS_P2;Temp;Humidity;BMP_temperature;BMP_pressure;BME280_temperature;BME280_humidity;BME280_pressure;Samples;Min_cycle;Max_cycle;Signal;HPM_P1;HPM_P2
2023/09/27 00:00:35;;;;;;;14.20;2.65;;;12.70;99.90;;;;;;4983248;28;20314;-95
2023/09/27 00:03:03;;;;;;;15.20;2.67;;;12.70;99.90;;;;;;4982087;28;20030;-95
2023/09/27 00:05:29;;;;;;;10.70;2.10;;;12.70;99.90;;;;;;4983578;28;20026;-95
2023/09/27 00:07:56;;;;;;;15.00;2.17;;;12.70;99.90;;;;;;4981583;28;20058;-94
2023/09/27 00:10:22;;;;;;;21.48;2.45;;;12.70;99.90;;;;;;4982869;28;20021;-93
2023/09/27 00:12:48;;;;;;;17.55;2.83;;;12.70;99.90;;;;;;4987591;28;20408;-93
2023/09/27 00:15:14;;;;;;;15.73;3.55;;;12.70;99.90;;;;;;4984620;28;20064;-96
2023/09/27 00:17:41;;;;;;;12.18;2.53;;;12.70;99.90;;;;;;4980630;28;20029;-95
2023/09/27 00:20:10;;;;;;;12.10;2.70;;;12.70;99.90;;;;;;4980119;28;20022;-95
2023/09/27 00:22:37;;;;;;;16.15;2.40;;;12.70;99.90;;;;;;4980087;28;20027;-95
2023/09/27 00:25:08;;;;;;;20.27;2.67;;;12.70;99.90;;;;;;4997714;28;20044;-93
2023/09/27 00:27:35;;;;;;;11.93;2.33;;;12.60;99.90;;;;;;4980035;28;20027;-95
2023/09/27 00:30:01;;;;;;;13.63;2.70;;;12.60;99.90;;;;;;4980315;28;20054;-94
2023/09/27 00:32:26;;;;;;;18.27;2.80;;;12.60;99.90;;;;;;4987068;28;20026;-95
2023/09/27 00:34:52;;;;;;;11.85;2.20;;;12.50;99.90;;;;;;4989890;28;20057;-94
2023/09/27 00:37:18;;;;;;;18.85;2.65;;;12.50;99.90;;;;;;4988026;28;20514;-95
2023/09/27 00:39:46;;;;;;;11.70;2.55;;;12.50;99.90;;;;;;5003908;28;20498;-94
2023/09/27 00:42:12;;;;;;;16.55;2.95;;;12.50;99.90;;;;;;4985327;28;20464;-94
2023/09/27 00:44:38;;;;;;;15.63;2.25;;;12.50;99.90;;;;;;4983719;28;20033;-95
2023/09/27 00:47:06;;;;;;;16.95;2.90;;;12.50;99.90;;;;;;4983768;28;20094;-95
2023/09/27 00:49:32;;;;;;;20.80;3.00;;;12.50;99.90;;;;;;4984728;28;20400;-94
2023/09/27 00:51:59;;;;;;;14.20;2.42;;;12.40;99.90;;;;;;4982404;28;20029;-94
2023/09/27 00:54:26;;;;;;;17.13;2.53;;;12.40;99.90;;;;;;4985242;28;20035;-95
2023/09/27 00:56:52;;;;;;;12.05;2.40;;;12.40;99.90;;;;;;4984647;28;20111;-94
2023/09/27 00:59:19;;;;;;;15.80;2.40;;;12.40;99.90;;;;;;4982423;28;20408;-95
2023/09/27 01:01:46;;;;;;;23.48;2.50;;;12.40;99.90;;;;;;4982779;28;20018;-96
2023/09/27 01:04:13;;;;;;;13.35;2.13;;;12.30;99.90;;;;;;5000311;28;20133;-95
2023/09/27 01:06:40;;;;;;;18.55;2.35;;;12.30;99.90;;;;;;4989103;28;20090;-94
2023/09/27 01:09:05;;;;;;;12.35;2.40;;;12.30;99.90;;;;;;4986896;28;20472;-94
2023/09/27 01:11:32;;;;;;;32.63;3.72;;;12.40;99.90;;;;;;4987303;28;20057;-94
2023/09/27 01:13:58;;;;;;;13.05;3.53;;;12.30;99.90;;;;;;4989718;28;20093;-93
2023/09/27 01:16:24;;;;;;;20.40;2.85;;;12.30;99.90;;;;;;4988168;28;20022;-94
2023/09/27 01:18:50;;;;;;;10.73;2.50;;;12.30;99.90;;;;;;4985728;28;20147;-94
2023/09/27 01:21:19;;;;;;;11.77;2.42;;;12.20;99.90;;;;;;5002035;28;20039;-95
2023/09/27 01:23:49;;;;;;;15.75;2.15;;;12.20;99.90;;;;;;4981948;28;20088;-95
2023/09/27 01:26:16;;;;;;;12.88;2.83;;;12.20;99.90;;;;;;4986087;28;20046;-94
2023/09/27 01:28:45;;;;;;;12.80;2.13;;;12.20;99.90;;;;;;4995658;28;20060;-95
2023/09/27 01:31:10;;;;;;;19.52;2.95;;;12.10;99.90;;;;;;4992050;28;20070;-93
2023/09/27 01:33:36;;;;;;;11.65;2.67;;;12.10;99.90;;;;;;4996383;28;20026;-95
2023/09/27 01:36:08;;;;;;;19.63;2.45;;;12.10;99.90;;;;;;4995163;28;20052;-92
2023/09/27 01:38:34;;;;;;;12.93;2.35;;;12.10;99.90;;;;;;4986969;28;20045;-93
2023/09/27 01:40:59;;;;;;;16.90;2.20;;;12.10;99.90;;;;;;4980734;28;20092;-93
2023/09/27 01:43:25;;;;;;;16.83;2.35;;;12.10;99.90;;;;;;4979430;28;20045;-93
2023/09/27 01:45:51;;;;;;;17.88;2.67;;;12.00;99.90;;;;;;4979653;28;20022;-94
2023/09/27 01:48:19;;;;;;;14.60;2.65;;;12.00;99.90;;;;;;4979905;28;20511;-94
2023/09/27 01:50:45;;;;;;;10.57;3.10;;;12.00;99.90;;;;;;4978460;28;20030;-94
2023/09/27 01:53:11;;;;;;;7.88;1.80;;;12.00;99.90;;;;;;4978439;28;20034;-95
2023/09/27 01:55:36;;;;;;;11.43;2.35;;;12.00;99.90;;;;;;4978337;28;20468;-94
2023/09/27 01:58:02;;;;;;;15.70;2.22;;;12.00;99.90;;;;;;4979542;28;20029;-96
2023/09/27 02:00:28;;;;;;;15.60;2.60;;;12.00;99.90;;;;;;4979869;28;20499;-95
2023/09/27 02:02:56;;;;;;;14.70;2.28;;;12.00;99.90;;;;;;4980832;28;20030;-94
2023/09/27 02:05:22;;;;;;;19.92;2.30;;;12.00;99.90;;;;;;4979710;28;20030;-92
2023/09/27 02:07:48;;;;;;;12.68;2.40;;;12.00;99.90;;;;;;4980102;28;20512;-94
2023/09/27 02:10:14;;;;;;;16.20;2.53;;;11.90;99.90;;;;;;4979209;28;20109;-96
2023/09/27 02:12:43;;;;;;;18.35;2.60;;;11.90;99.90;;;;;;4996193;28;20030;-94
2023/09/27 02:15:11;;;;;;;17.83;2.75;;;11.80;99.90;;;;;;4978759;28;20391;-94
2023/09/27 02:17:38;;;;;;;19.02;1.85;;;11.70;99.90;;;;;;4978811;28;20049;-95
2023/09/27 02:20:07;;;;;;;7.07;1.83;;;11.70;99.90;;;;;;4977821;28;20116;-94
2023/09/27 02:22:33;;;;;;;15.82;2.13;;;11.70;99.90;;;;;;4977699;28;20027;-94
2023/09/27 02:24:59;;;;;;;21.02;2.65;;;11.70;99.90;;;;;;4978231;28;20442;-94
2023/09/27 02:27:25;;;;;;;15.73;2.50;;;11.80;99.90;;;;;;4977932;28;20157;-95
2023/09/27 02:29:50;;;;;;;16.50;3.25;;;11.80;99.90;;;;;;4978044;28;20054;-95
2023/09/27 02:32:17;;;;;;;10.77;2.40;;;11.80;99.90;;;;;;4978414;28;20022;-94
2023/09/27 02:34:43;;;;;;;19.40;2.83;;;11.80;99.90;;;;;;4978047;28;20146;-94
2023/09/27 02:37:09;;;;;;;13.57;2.47;;;11.80;99.90;;;;;;4980133;28;20018;-94
2023/09/27 02:39:35;;;;;;;18.05;2.28;;;11.80;99.90;;;;;;4978427;28;20034;-94
2023/09/27 02:42:01;;;;;;;9.95;2.08;;;11.80;99.90;;;;;;4977471;28;20117;-96
2023/09/27 02:44:26;;;;;;;22.00;2.40;;;11.80;99.90;;;;;;4978091;28;20106;-94
2023/09/27 02:46:53;;;;;;;16.60;2.22;;;11.80;99.90;;;;;;4977524;28;20080;-96
2023/09/27 02:49:20;;;;;;;16.88;2.95;;;11.80;99.90;;;;;;4977521;28;20026;-95
2023/09/27 02:51:47;;;;;;;14.00;2.58;;;11.80;99.90;;;;;;4977871;28;20026;-96
2023/09/27 02:54:14;;;;;;;19.42;2.08;;;11.80;99.90;;;;;;4978407;28;20144;-94
2023/09/27 02:56:43;;;;;;;16.25;2.28;;;11.80;99.90;;;;;;4979055;28;20022;-96
2023/09/27 02:59:12;;;;;;;16.77;2.15;;;11.80;99.90;;;;;;4979547;28;20120;-94
2023/09/27 03:01:40;;;;;;;12.30;2.35;;;11.70;99.90;;;;;;4978690;28;20040;-94
2023/09/27 03:04:06;;;;;;;17.75;2.40;;;11.70;99.90;;;;;;4978599;28;20464;-94
2023/09/27 03:06:35;;;;;;;9.38;1.63;;;11.70;99.90;;;;;;4977970;28;20022;-95
2023/09/27 03:09:00;;;;;;;9.90;2.05;;;11.60;99.90;;;;;;4978336;28;20042;-94
2023/09/27 03:11:26;;;;;;;17.45;2.35;;;11.60;99.90;;;;;;4978421;28;20034;-94
2023/09/27 03:13:52;;;;;;;12.70;2.78;;;11.60;99.90;;;;;;4979333;28;20377;-95
2023/09/27 03:16:17;;;;;;;17.23;2.30;;;11.60;99.90;;;;;;4985885;28;20022;-93
2023/09/27 03:18:43;;;;;;;16.52;2.22;;;11.60;99.90;;;;;;4988397;28;20031;-94
2023/09/27 03:21:09;;;;;;;13.73;2.67;;;11.50;99.90;;;;;;4991362;28;20027;-95
2023/09/27 03:23:35;;;;;;;23.02;2.80;;;11.50;99.90;;;;;;4986762;28;20030;-95
2023/09/27 03:26:01;;;;;;;20.45;3.15;;;11.50;99.90;;;;;;4981435;28;20031;-95
2023/09/27 03:28:27;;;;;;;12.05;1.92;;;11.50;99.90;;;;;;4980944;28;20401;-95
2023/09/27 03:30:54;;;;;;;13.13;2.08;;;11.50;99.90;;;;;;4982651;28;20061;-96
2023/09/27 03:33:21;;;;;;;16.30;2.08;;;11.50;99.90;;;;;;4982016;28;20486;-95
2023/09/27 03:35:47;;;;;;;16.17;2.30;;;11.50;99.90;;;;;;4982653;28;20026;-95
2023/09/27 03:38:12;;;;;;;12.45;2.05;;;11.50;99.90;;;;;;4981801;28;20053;-94
2023/09/27 03:40:41;;;;;;;8.05;2.15;;;11.40;99.90;;;;;;4983984;28;20098;-92
2023/09/27 03:43:07;;;;;;;21.25;2.80;;;11.40;99.90;;;;;;4992514;28;20034;-95
2023/09/27 03:45:35;;;;;;;16.23;2.65;;;11.50;99.90;;;;;;4993448;28;20037;-95
2023/09/27 03:48:02;;;;;;;17.83;2.95;;;11.50;99.90;;;;;;4987786;28;20511;-95
2023/09/27 03:50:29;;;;;;;10.80;1.90;;;11.40;99.90;;;;;;5009597;28;20078;-95
2023/09/27 03:52:58;;;;;;;16.80;2.40;;;11.50;99.90;;;;;;4992990;28;20037;-95
2023/09/27 03:55:25;;;;;;;16.67;2.43;;;11.40;99.90;;;;;;4991129;28;20503;-95
2023/09/27 03:57:54;;;;;;;7.25;2.20;;;11.40;99.90;;;;;;4989499;28;20061;-94
2023/09/27 04:00:20;;;;;;;12.73;3.10;;;11.40;99.90;;;;;;4984469;28;20030;-94
2023/09/27 04:02:46;;;;;;;7.85;2.10;;;11.40;99.90;;;;;;4982674;28;20037;-93
2023/09/27 04:05:12;;;;;;;14.80;2.88;;;11.40;99.90;;;;;;4981328;28;20022;-94
2023/09/27 04:07:39;;;;;;;14.45;2.25;;;11.40;99.90;;;;;;4982315;28;20033;-94
2023/09/27 04:10:06;;;;;;;18.02;2.85;;;11.50;99.90;;;;;;4986738;28;20022;-95
2023/09/27 04:12:32;;;;;;;21.02;3.00;;;11.50;99.90;;;;;;5008019;28;20031;-94
2023/09/27 04:14:57;;;;;;;10.55;2.55;;;11.50;99.90;;;;;;4985379;28;20045;-94
2023/09/27 04:17:23;;;;;;;19.20;2.95;;;11.50;99.90;;;;;;4981245;28;20026;-95
2023/09/27 04:19:51;;;;;;;17.05;3.10;;;11.50;99.90;;;;;;4998938;28;20030;-95
2023/09/27 04:22:16;;;;;;;21.20;3.70;;;11.50;99.90;;;;;;4980613;28;20109;-94
2023/09/27 04:24:42;;;;;;;16.45;2.53;;;11.50;99.90;;;;;;4980674;28;20555;-95
2023/09/27 04:27:08;;;;;;;11.63;2.60;;;11.50;99.90;;;;;;4981728;28;20104;-95
2023/09/27 04:29:34;;;;;;;19.27;2.42;;;11.50;99.90;;;;;;4981075;28;20088;-94
2023/09/27 04:31:59;;;;;;;19.85;3.08;;;11.50;99.90;;;;;;4980023;28;20090;-94
2023/09/27 04:34:25;;;;;;;13.43;2.42;;;11.50;99.90;;;;;;4979761;28;20129;-95
2023/09/27 04:36:51;;;;;;;11.77;2.13;;;11.40;99.90;;;;;;4980253;28;20022;-94
2023/09/27 04:39:17;;;;;;;11.23;3.47;;;11.40;99.90;;;;;;4979705;28;20085;-94
2023/09/27 04:41:46;;;;;;;13.35;2.42;;;11.40;99.90;;;;;;4979603;28;20045;-94
2023/09/27 04:44:13;;;;;;;16.00;2.30;;;11.40;99.90;;;;;;4979554;28;20448;-96
2023/09/27 04:46:39;;;;;;;10.32;2.38;;;11.40;99.90;;;;;;4978778;28;20054;-94
2023/09/27 04:49:04;;;;;;;14.25;3.00;;;11.30;99.90;;;;;;4979168;28;20057;-93
2023/09/27 04:51:30;;;;;;;10.30;3.03;;;11.30;99.90;;;;;;4979600;28;20026;-94
2023/09/27 04:54:00;;;;;;;14.13;3.22;;;11.30;99.90;;;;;;4996515;28;20039;-94
2023/09/27 04:56:27;;;;;;;22.42;3.45;;;11.30;99.90;;;;;;4979464;28;20109;-95
2023/09/27 04:58:52;;;;;;;11.98;2.45;;;11.30;99.90;;;;;;4996877;28;20034;-93
2023/09/27 05:01:18;;;;;;;16.85;3.75;;;11.30;99.90;;;;;;4978834;28;20567;-94
2023/09/27 05:03:44;;;;;;;12.73;2.60;;;11.30;99.90;;;;;;4979091;28;20152;-93
2023/09/27 05:06:09;;;;;;;15.95;3.92;;;11.30;99.90;;;;;;4978759;28;20023;-94
2023/09/27 05:08:35;;;;;;;17.92;3.28;;;11.20;99.90;;;;;;4979352;28;20030;-94
2023/09/27 05:11:01;;;;;;;12.07;2.88;;;11.20;99.90;;;;;;4979357;28;20042;-94
2023/09/27 05:13:26;;;;;;;20.67;2.60;;;11.20;99.90;;;;;;4980477;28;20027;-94
2023/09/27 05:15:52;;;;;;;11.13;2.47;;;11.20;99.90;;;;;;4981667;28;20030;-95
2023/09/27 05:18:19;;;;;;;9.13;2.05;;;11.20;99.90;;;;;;4984990;28;20026;-94
2023/09/27 05:20:45;;;;;;;19.02;3.00;;;11.20;99.90;;;;;;4985140;28;20065;-92
2023/09/27 05:23:14;;;;;;;9.80;2.10;;;11.20;99.90;;;;;;4983818;28;20022;-94
2023/09/27 05:25:40;;;;;;;11.07;3.33;;;11.20;99.90;;;;;;5000885;28;20014;-94
2023/09/27 05:28:07;;;;;;;12.27;2.42;;;11.20;99.90;;;;;;4980533;28;20026;-95
2023/09/27 05:30:32;;;;;;;12.95;2.72;;;11.20;99.90;;;;;;4980420;28;20080;-96
2023/09/27 05:32:58;;;;;;;13.35;2.65;;;11.20;99.90;;;;;;4979204;28;20076;-96
2023/09/27 05:35:24;;;;;;;15.85;2.20;;;11.20;99.90;;;;;;4980119;28;20034;-96
2023/09/27 05:37:50;;;;;;;17.92;2.17;;;11.20;99.90;;;;;;4978599;28;20128;-96
2023/09/27 05:40:16;;;;;;;15.98;2.85;;;11.20;99.90;;;;;;4979030;28;20023;-95
2023/09/27 05:42:42;;;;;;;13.85;2.65;;;11.20;99.90;;;;;;4979892;28;20026;-96
2023/09/27 05:45:11;;;;;;;12.05;2.22;;;11.10;99.90;;;;;;4978926;28;20022;-96
2023/09/27 05:47:37;;;;;;;16.00;2.53;;;11.10;99.90;;;;;;4981447;28;20678;-96
2023/09/27 05:50:04;;;;;;;15.23;2.90;;;11.10;99.90;;;;;;4981670;28;20027;-94
2023/09/27 05:52:34;;;;;;;10.43;2.67;;;11.10;99.90;;;;;;4986975;28;20090;-93
2023/09/27 05:55:00;;;;;;;16.40;4.10;;;11.00;99.90;;;;;;4995909;28;20057;-94
2023/09/27 05:57:25;;;;;;;16.83;2.45;;;11.00;99.90;;;;;;4986317;28;20030;-96
2023/09/27 05:59:51;;;;;;;16.80;2.63;;;11.00;99.90;;;;;;4982265;28;20034;-95
2023/09/27 06:02:20;;;;;;;7.60;2.13;;;11.00;99.90;;;;;;4978681;28;20034;-95
2023/09/27 06:04:47;;;;;;;13.43;2.80;;;11.00;99.90;;;;;;4977292;28;20380;-94
2023/09/27 06:07:14;;;;;;;13.65;2.67;;;11.00;99.90;;;;;;4977762;28;20026;-95
2023/09/27 06:09:44;;;;;;;13.88;2.75;;;11.00;99.90;;;;;;4978352;28;20022;-94
2023/09/27 06:12:10;;;;;;;19.75;3.42;;;11.00;99.90;;;;;;4977214;28;20026;-93
2023/09/27 06:14:37;;;;;;;11.95;2.35;;;11.00;99.90;;;;;;4977200;28;20038;-96
2023/09/27 06:17:03;;;;;;;15.68;3.08;;;11.00;99.90;;;;;;4978629;28;20034;-94
2023/09/27 06:19:31;;;;;;;13.70;2.40;;;10.90;99.90;;;;;;4978581;28;20053;-92
2023/09/27 06:22:00;;;;;;;13.27;3.05;;;10.90;99.90;;;;;;4977662;28;20027;-94
2023/09/27 06:24:28;;;;;;;14.45;2.80;;;10.90;99.90;;;;;;4977936;28;20022;-93
2023/09/27 06:26:54;;;;;;;14.45;2.80;;;10.90;99.90;;;;;;4978140;28;20026;-94
2023/09/27 06:29:20;;;;;;;19.88;3.17;;;10.90;99.90;;;;;;4977617;28;20554;-93
2023/09/27 06:31:49;;;;;;;10.60;2.92;;;10.80;99.90;;;;;;4977416;28;20088;-93
2023/09/27 06:34:16;;;;;;;16.67;2.72;;;10.90;99.90;;;;;;4977289;28;20084;-94
2023/09/27 06:36:42;;;;;;;15.40;2.85;;;10.80;99.90;;;;;;4971511;28;20101;-95
2023/09/27 06:39:14;;;;;;;12.82;2.80;;;10.80;99.90;;;;;;4976781;28;20050;-94
2023/09/27 06:41:41;;;;;;;11.70;2.85;;;10.80;99.90;;;;;;4977736;28;20018;-95
2023/09/27 06:44:07;;;;;;;15.50;2.97;;;10.80;99.90;;;;;;4981029;28;20026;-95
2023/09/27 06:46:36;;;;;;;17.38;2.72;;;10.80;99.90;;;;;;4979287;28;20089;-94
2023/09/27 06:49:03;;;;;;;11.82;2.60;;;10.80;99.90;;;;;;4976277;28;20387;-94
2023/09/27 06:51:29;;;;;;;14.75;3.03;;;10.80;99.90;;;;;;4982127;28;20037;-94
2023/09/27 06:53:55;;;;;;;17.42;2.95;;;10.90;99.90;;;;;;4976967;28;20121;-94
2023/09/27 06:56:21;;;;;;;12.38;3.13;;;10.90;99.90;;;;;;4977284;28;20053;-94
2023/09/27 06:58:48;;;;;;;26.30;3.78;;;10.90;99.90;;;;;;4976569;28;20030;-92
2023/09/27 07:01:15;;;;;;;16.70;2.97;;;10.90;99.90;;;;;;4976411;28;20511;-94
2023/09/27 07:03:41;;;;;;;12.57;2.78;;;10.90;99.90;;;;;;4976066;28;20026;-94
2023/09/27 07:06:06;;;;;;;18.30;2.85;;;10.90;99.90;;;;;;4977200;28;20030;-92
2023/09/27 07:08:33;;;;;;;14.88;3.13;;;11.00;99.90;;;;;;4985310;28;20057;-92
2023/09/27 07:11:05;;;;;;;22.05;3.50;;;11.00;99.90;;;;;;4989152;28;20023;-93
2023/09/27 07:13:32;;;;;;;21.52;3.85;;;11.00;99.90;;;;;;4984969;28;20042;-91
2023/09/27 07:15:59;;;;;;;13.32;2.60;;;11.10;99.90;;;;;;4985384;28;20031;-94
2023/09/27 07:18:25;;;;;;;14.40;3.30;;;11.10;99.90;;;;;;4982086;28;20018;-92
2023/09/27 07:20:51;;;;;;;24.20;3.30;;;11.10;99.90;;;;;;4982104;28;20117;-93
2023/09/27 07:23:17;;;;;;;21.27;3.85;;;11.10;99.90;;;;;;4979523;28;20128;-94
2023/09/27 07:25:44;;;;;;;19.70;3.00;;;11.10;99.90;;;;;;4982357;28;20240;-94
2023/09/27 07:28:10;;;;;;;11.85;2.80;;;11.20;99.90;;;;;;4981368;28;20109;-93
2023/09/27 07:30:37;;;;;;;15.38;3.35;;;11.30;99.90;;;;;;4978939;28;20046;-94
2023/09/27 07:33:08;;;;;;;16.30;3.47;;;11.30;99.90;;;;;;4977184;28;20147;-95
2023/09/27 07:35:35;;;;;;;14.77;3.47;;;11.40;99.90;;;;;;4976353;28;20027;-95
2023/09/27 07:38:01;;;;;;;18.90;2.90;;;11.40;99.90;;;;;;4978414;28;20058;-94
2023/09/27 07:40:27;;;;;;;21.48;3.03;;;11.50;99.90;;;;;;4979900;28;20029;-96
2023/09/27 07:42:53;;;;;;;12.68;2.65;;;11.50;99.90;;;;;;4978956;28;20022;-95
2023/09/27 07:45:22;;;;;;;13.70;3.30;;;11.50;99.90;;;;;;4977686;28;20033;-95
2023/09/27 07:47:53;;;;;;;16.05;3.30;;;11.60;99.90;;;;;;4977082;28;20022;-95
2023/09/27 07:50:28;;;;;;;15.00;2.92;;;11.60;99.90;;;;;;4977162;28;20077;-94
2023/09/27 07:52:54;;;;;;;21.58;3.25;;;11.70;99.90;;;;;;4976869;28;20062;-95
2023/09/27 07:55:21;;;;;;;17.27;2.90;;;11.70;99.90;;;;;;4977576;28;20027;-95
2023/09/27 07:57:47;;;;;;;13.05;3.33;;;11.70;99.90;;;;;;4977701;28;20121;-92
2023/09/27 08:00:18;;;;;;;20.17;2.58;;;11.70;99.90;;;;;;4981218;28;20118;-93
2023/09/27 08:02:45;;;;;;;16.20;3.10;;;11.70;99.90;;;;;;4987034;28;20030;-94
2023/09/27 08:05:14;;;;;;;23.85;3.58;;;11.70;99.90;;;;;;4980995;28;20030;-92
2023/09/27 08:07:40;;;;;;;16.25;2.70;;;11.80;99.90;;;;;;4979735;28;20026;-91
2023/09/27 08:10:06;;;;;;;16.25;3.05;;;11.90;99.90;;;;;;4979360;28;20022;-93
2023/09/27 08:12:33;;;;;;;21.63;3.80;;;12.00;99.90;;;;;;4982907;28;20034;-95
2023/09/27 08:15:03;;;;;;;12.55;2.30;;;12.10;99.90;;;;;;4978633;28;20034;-95
2023/09/27 08:17:29;;;;;;;16.30;3.10;;;12.20;99.90;;;;;;4980043;28;20052;-95
2023/09/27 08:19:55;;;;;;;17.25;2.65;;;12.30;99.90;;;;;;4979855;28;20035;-94
2023/09/27 08:22:21;;;;;;;17.55;2.75;;;12.40;99.90;;;;;;4978847;28;20030;-95
2023/09/27 08:24:47;;;;;;;10.68;2.88;;;12.50;99.90;;;;;;4981011;28;20030;-95
2023/09/27 08:27:12;;;;;;;12.85;2.90;;;12.60;99.90;;;;;;4979325;28;20526;-94
2023/09/27 08:29:38;;;;;;;18.60;3.05;;;12.60;99.90;;;;;;4979803;28;20026;-96
2023/09/27 08:32:06;;;;;;;18.40;3.45;;;12.80;99.90;;;;;;4974372;28;20030;-95
2023/09/27 08:34:32;;;;;;;19.35;2.97;;;12.90;99.90;;;;;;4979370;28;20026;-96
2023/09/27 08:36:59;;;;;;;16.90;3.03;;;13.00;99.90;;;;;;4979456;28;20400;-95
2023/09/27 08:39:26;;;;;;;14.50;2.67;;;13.10;99.90;;;;;;4980170;28;20113;-95
2023/09/27 08:41:54;;;;;;;19.27;2.90;;;13.20;99.90;;;;;;4980700;28;20030;-96
2023/09/27 08:44:24;;;;;;;19.60;2.88;;;13.20;99.90;;;;;;4981268;28;20022;-95
2023/09/27 08:46:54;;;;;;;19.88;3.25;;;13.30;99.90;;;;;;4982026;28;20030;-95
2023/09/27 08:49:23;;;;;;;19.02;3.47;;;13.30;99.90;;;;;;4981378;28;20077;-94
2023/09/27 08:51:53;;;;;;;19.75;2.80;;;13.30;99.90;;;;;;4980420;28;20043;-94
2023/09/27 08:54:21;;;;;;;21.25;3.25;;;13.40;99.90;;;;;;4980019;28;20034;-95
2023/09/27 08:56:50;;;;;;;17.20;3.90;;;13.40;99.90;;;;;;4979390;28;20072;-95
2023/09/27 08:59:18;;;;;;;15.07;3.17;;;13.50;99.90;;;;;;4980332;28;20034;-95
2023/09/27 09:01:44;;;;;;;20.75;2.90;;;13.60;99.90;;;;;;4978583;28;20354;-95
2023/09/27 09:04:12;;;;;;;18.20;2.83;;;13.70;99.90;;;;;;4979610;28;20034;-96
2023/09/27 09:06:41;;;;;;;17.45;3.60;;;13.70;99.90;;;;;;4980891;28;20038;-94
2023/09/27 09:09:11;;;;;;;13.25;3.30;;;13.80;99.90;;;;;;4966285;28;20058;-95
2023/09/27 09:11:47;;;;;;;11.82;3.15;;;13.90;99.90;;;;;;4986891;28;20023;-94
2023/09/27 09:14:20;;;;;;;12.93;2.92;;;14.00;99.90;;;;;;4984530;28;20037;-95
2023/09/27 09:16:53;;;;;;;17.13;3.35;;;14.10;99.90;;;;;;4984152;28;20062;-95
2023/09/27 09:19:25;;;;;;;20.58;3.05;;;14.20;99.90;;;;;;4978916;28;20091;-94
2023/09/27 09:22:00;;;;;;;19.00;3.55;;;14.20;99.90;;;;;;4978849;28;20117;-95
2023/09/27 09:24:26;;;;;;;17.55;3.00;;;14.40;99.90;;;;;;4980146;28;20026;-94
2023/09/27 09:27:18;;;;;;;18.95;3.30;;;14.50;99.90;;;;;;4994545;28;20020;-92
2023/09/27 09:29:47;;;;;;;19.25;2.90;;;14.60;99.90;;;;;;4997410;28;20031;-94
2023/09/27 09:32:20;;;;;;;12.35;2.35;;;14.70;99.90;;;;;;5001692;28;20061;-96
2023/09/27 09:34:51;;;;;;;15.25;3.08;;;14.80;99.90;;;;;;5001304;28;20018;-96
2023/09/27 09:37:20;;;;;;;;;;;15.00;99.90;;;;;;5002182;28;20046;-93
2023/09/27 09:39:48;;;;;;;15.68;2.58;;;15.30;99.90;;;;;;5006282;28;19917;-95
2023/09/27 09:42:29;;;;;;;18.50;3.00;;;15.50;99.90;;;;;;4979649;28;20113;-96
2023/09/27 09:45:06;;;;;;;18.23;2.75;;;15.80;99.90;;;;;;4980191;28;20030;-94
2023/09/27 09:47:37;;;;;;;18.52;3.00;;;16.00;99.90;;;;;;4980080;28;20035;-96
2023/09/27 09:50:16;;;;;;;17.80;2.75;;;16.20;99.90;;;;;;4978716;28;20026;-96
2023/09/27 09:53:04;;;;;;;18.50;4.10;;;16.40;99.90;;;;;;4980089;28;20038;-96
2023/09/27 09:55:30;;;;;;;20.67;3.92;;;16.80;99.90;;;;;;4985360;28;20039;-94
2023/09/27 09:58:02;;;;;;;16.98;4.13;;;17.10;99.90;;;;;;4999294;28;20033;-96
2023/09/27 10:00:30;;;;;;;21.77;3.83;;;17.30;99.90;;;;;;4983416;28;20022;-96
2023/09/27 10:03:04;;;;;;;13.43;3.05;;;17.40;99.90;;;;;;4981818;28;20117;-95
2023/09/27 10:05:36;;;;;;;22.10;3.60;;;17.60;99.90;;;;;;4984474;28;20035;-95
2023/09/27 10:08:02;;;;;;;13.75;2.75;;;17.80;99.90;;;;;;4984734;28;20033;-94
2023/09/27 10:10:28;;;;;;;15.85;3.17;;;17.90;99.90;;;;;;4993565;28;20058;-95
2023/09/27 10:12:56;;;;;;;21.95;3.28;;;18.00;99.90;;;;;;4990274;28;20479;-95
2023/09/27 10:15:22;;;;;;;13.30;3.20;;;18.00;99.90;;;;;;4985688;28;20038;-94
2023/09/27 10:17:48;;;;;;;15.07;2.97;;;17.90;99.90;;;;;;4992187;28;20026;-96
2023/09/27 10:20:22;;;;;;;12.27;2.60;;;17.80;99.90;;;;;;4984417;28;20034;-95
2023/09/27 10:22:50;;;;;;;11.48;2.70;;;17.60;99.90;;;;;;4988945;28;20468;-94
2023/09/27 10:25:27;;;;;;;11.18;3.03;;;17.60;99.90;;;;;;4990638;28;20026;-93
2023/09/27 10:27:59;;;;;;;20.40;3.17;;;17.50;99.90;;;;;;4992695;28;20034;-95
2023/09/27 10:30:25;;;;;;;17.35;3.90;;;17.40;99.90;;;;;;4991780;28;20046;-91
2023/09/27 10:33:16;;;;;;;17.45;3.60;;;17.40;99.90;;;;;;5007664;28;20087;-93
2023/09/27 10:36:02;;;;;;;;;;;17.40;99.90;;;;;;5000935;28;20049;-93
2023/09/27 10:38:43;;;;;;;12.20;3.25;;;17.40;99.90;;;;;;4966961;28;19976;-94
2023/09/27 10:41:29;;;;;;;15.45;3.00;;;17.30;99.90;;;;;;4978589;28;20111;-93
2023/09/27 10:43:55;;;;;;;19.90;3.58;;;17.20;99.90;;;;;;4978833;28;20038;-94
2023/09/27 10:46:20;;;;;;;10.35;2.50;;;17.10;99.90;;;;;;4978246;28;20022;-95
2023/09/27 10:48:58;;;;;;;13.93;2.92;;;17.00;99.90;;;;;;4980711;28;20038;-96
2023/09/27 10:51:26;;;;;;;13.70;2.70;;;17.00;99.90;;;;;;4982167;28;20416;-94
2023/09/27 10:53:53;;;;;;;20.48;3.55;;;16.90;99.90;;;;;;4982501;28;20030;-93
2023/09/27 10:56:19;;;;;;;14.23;2.83;;;16.90;99.90;;;;;;4985772;28;20026;-94
2023/09/27 10:58:46;;;;;;;11.98;2.95;;;16.80;99.90;;;;;;4984237;28;20053;-93
2023/09/27 11:01:14;;;;;;;16.80;3.17;;;16.80;99.90;;;;;;4982253;28;20492;-93
2023/09/27 11:03:39;;;;;;;10.88;3.72;;;16.70;99.90;;;;;;4982141;28;20117;-93
2023/09/27 11:06:14;;;;;;;13.25;2.92;;;16.70;99.90;;;;;;4980175;28;20046;-95
2023/09/27 11:08:40;;;;;;;13.70;2.70;;;16.70;99.90;;;;;;5001388;28;20033;-96
2023/09/27 11:11:07;;;;;;;16.67;2.92;;;16.60;99.90;;;;;;5017242;28;20044;-95
2023/09/27 11:13:34;;;;;;;8.80;2.78;;;16.50;99.90;;;;;;5000226;28;20058;-95
2023/09/27 11:16:10;;;;;;;11.90;3.22;;;16.50;99.90;;;;;;5016987;28;20014;-95
2023/09/27 11:18:44;;;;;;;11.32;3.00;;;16.60;99.90;;;;;;4999885;28;20018;-93
2023/09/27 11:21:11;;;;;;;13.57;3.13;;;16.60;99.90;;;;;;4999924;28;20145;-93
2023/09/27 11:23:54;;;;;;;11.48;4.30;;;16.60;99.90;;;;;;4998582;28;20023;-93
2023/09/27 11:26:20;;;;;;;17.52;4.68;;;16.50;99.90;;;;;;5000230;28;20054;-93
2023/09/27 11:29:03;;;;;;;15.43;4.13;;;16.50;99.90;;;;;;5001595;28;20054;-93
2023/09/27 11:31:30;;;;;;;14.32;3.40;;;16.50;99.90;;;;;;4999729;28;20149;-93
2023/09/27 11:34:20;;;;;;;14.25;4.00;;;16.40;99.90;;;;;;5000465;28;20086;-94
2023/09/27 11:36:47;;;;;;;20.27;4.20;;;16.40;99.90;;;;;;5003779;28;20022;-95
2023/09/27 11:39:14;;;;;;;14.85;4.28;;;16.30;99.90;;;;;;5004483;28;20109;-94
2023/09/27 11:41:46;;;;;;;16.00;4.55;;;16.30;99.90;;;;;;5002723;28;20053;-95
2023/09/27 11:44:26;;;;;;;16.25;4.68;;;16.20;99.90;;;;;;4997667;28;20053;-94
2023/09/27 11:47:10;;;;;;;14.13;4.28;;;16.10;99.90;;;;;;4992154;28;20101;-96
2023/09/27 11:49:36;;;;;;;17.35;5.65;;;16.10;99.90;;;;;;4999893;28;20021;-95
2023/09/27 11:52:05;;;;;;;16.85;5.65;;;16.00;99.90;;;;;;5003034;28;20015;-92
2023/09/27 11:54:32;;;;;;;24.00;6.30;;;16.00;99.90;;;;;;5018602;28;20053;-95
2023/09/27 11:57:01;;;;;;;21.95;6.30;;;16.00;99.90;;;;;;4997021;28;20053;-95
2023/09/27 11:59:28;;;;;;;23.67;7.97;;;15.90;99.90;;;;;;5004137;28;20014;-93
2023/09/27 12:01:55;;;;;;;20.52;7.95;;;15.90;99.90;;;;;;5003959;28;20034;-91
2023/09/27 12:04:21;;;;;;;25.00;8.95;;;15.90;99.90;;;;;;5004490;28;20030;-93
2023/09/27 12:06:47;;;;;;;23.58;9.32;;;15.80;99.90;;;;;;5003493;28;20018;-94
2023/09/27 12:09:12;;;;;;;29.77;9.57;;;15.90;99.90;;;;;;5004734;28;20041;-92
2023/09/27 12:11:38;;;;;;;22.17;8.20;;;15.80;99.90;;;;;;5003445;28;20057;-93
2023/09/27 12:14:07;;;;;;;23.05;9.00;;;15.80;99.90;;;;;;5004393;28;20030;-92
2023/09/27 12:16:33;;;;;;;22.00;8.05;;;15.80;99.90;;;;;;4988466;28;20095;-91
2023/09/27 12:19:01;;;;;;;20.33;8.15;;;15.80;99.90;;;;;;5004279;28;20022;-91
2023/09/27 12:21:34;;;;;;;23.98;8.63;;;15.80;99.90;;;;;;5004208;28;20060;-92
2023/09/27 12:24:01;;;;;;;23.05;7.47;;;15.80;99.90;;;;;;5004047;28;20014;-92
2023/09/27 12:26:28;;;;;;;20.52;7.47;;;15.80;99.90;;;;;;5004131;28;20021;-91
2023/09/27 12:28:54;;;;;;;28.58;8.10;;;15.80;99.90;;;;;;5004465;28;20023;-91
2023/09/27 12:31:23;;;;;;;23.42;8.23;;;15.80;99.90;;;;;;5003864;28;20082;-92
2023/09/27 12:33:48;;;;;;;24.77;8.07;;;15.80;99.90;;;;;;5003646;28;20041;-93
2023/09/27 12:36:21;;;;;;;23.98;7.72;;;15.80;99.90;;;;;;5004000;28;20093;-92
2023/09/27 12:38:48;;;;;;;28.17;8.23;;;15.80;99.90;;;;;;5003839;28;20093;-92
2023/09/27 12:41:17;;;;;;;26.40;7.50;;;15.80;99.90;;;;;;5003511;28;20023;-92